Terminal Aerodrome Forecast
Issued by NWS Jackson, MS

Home | Current Version | Previous Version | Text Only | Print | Product List | Glossary On
Versions: 1 2 3 4 5 6 7 8 9 10 11 12 13
304
FTUS44 KJAN 260559 RRA
TAFHBG
TAF
KHBG 260559Z 2606/2706 00000KT P6SM FEW050 FEW250
     FM261100 00000KT 5SM BR FEW050 FEW250
     FM261330 09007KT P6SM FEW040 SCT060 SCT250
     FM262300 11004KT P6SM FEW090 FEW250=

USA.gov is the U.S. government's official web portal to all federal, state and local government web resources and services.